createdAt,value
2018-03-31T00:00:49.466Z,6.93
2018-03-31T00:03:17.292Z,5.33
2018-03-31T00:05:44.315Z,5.30
2018-03-31T00:08:11.335Z,6.40
2018-03-31T00:10:39.122Z,5.87
2018-03-31T00:13:06.717Z,6.93
2018-03-31T00:15:33.818Z,6.20
2018-03-31T00:18:01.577Z,6.60
2018-03-31T00:20:28.581Z,5.80
2018-03-31T00:22:55.579Z,5.17
2018-03-31T00:25:22.603Z,6.03
2018-03-31T00:27:50.382Z,5.83
2018-03-31T00:30:17.424Z,5.53
2018-03-31T00:32:44.438Z,6.37
2018-03-31T00:35:11.430Z,6.50
2018-03-31T00:37:38.479Z,6.80
2018-03-31T00:40:05.459Z,6.87
2018-03-31T00:42:32.466Z,7.33
2018-03-31T00:44:59.490Z,7.00
2018-03-31T00:47:27.270Z,6.63
2018-03-31T00:49:55.094Z,6.63
2018-03-31T00:52:22.111Z,6.13
2018-03-31T00:54:49.106Z,5.23
2018-03-31T00:57:16.872Z,5.40
2018-03-31T00:59:44.735Z,6.63
2018-03-31T01:02:12.529Z,6.60
2018-03-31T01:04:39.532Z,5.93
2018-03-31T01:07:07.286Z,5.43
2018-03-31T01:09:34.293Z,5.93
2018-03-31T01:12:01.299Z,6.93
2018-03-31T01:14:29.117Z,6.03
2018-03-31T01:16:56.113Z,6.40
2018-03-31T01:19:23.130Z,6.20
2018-03-31T01:21:50.135Z,6.63
2018-03-31T01:24:17.127Z,5.47
2018-03-31T01:26:44.118Z,7.67
2018-03-31T01:29:11.122Z,5.70
2018-03-31T01:31:38.912Z,6.33
2018-03-31T01:34:06.692Z,6.20
2018-03-31T01:36:33.832Z,5.53
2018-03-31T01:39:00.832Z,6.70
2018-03-31T01:41:27.818Z,5.13
2018-03-31T01:43:54.827Z,5.97
2018-03-31T01:46:21.839Z,7.17
2018-03-31T01:48:48.847Z,5.20
2018-03-31T01:51:15.873Z,5.93
2018-03-31T01:53:43.677Z,5.90
2018-03-31T01:56:10.697Z,6.07
2018-03-31T01:58:38.439Z,6.47
2018-03-31T02:01:05.444Z,5.80
2018-03-31T02:03:32.469Z,6.40
2018-03-31T02:05:59.463Z,5.70
2018-03-31T02:08:27.950Z,6.70
2018-03-31T02:10:54.943Z,7.70
2018-03-31T02:13:21.929Z,6.80
2018-03-31T02:15:49.696Z,7.07
2018-03-31T02:18:17.459Z,7.90
2018-03-31T02:20:45.765Z,6.30
2018-03-31T02:23:13.520Z,7.70
2018-03-31T02:25:41.291Z,7.23
2018-03-31T02:28:09.583Z,6.77
2018-03-31T02:30:36.589Z,7.40
2018-03-31T02:33:03.671Z,6.83
2018-03-31T02:35:31.454Z,7.37
2018-03-31T02:37:58.462Z,6.90
2018-03-31T02:40:26.221Z,7.93
2018-03-31T02:42:53.227Z,7.70
2018-03-31T02:45:20.204Z,7.30
2018-03-31T02:47:47.229Z,7.40
2018-03-31T02:50:14.322Z,7.87
2018-03-31T02:52:42.194Z,7.67
2018-03-31T02:55:09.184Z,6.47
2018-03-31T02:57:36.212Z,7.13
2018-03-31T03:00:03.204Z,6.57
2018-03-31T03:02:30.237Z,7.60
2018-03-31T03:04:57.247Z,7.70
2018-03-31T03:07:24.282Z,8.07
2018-03-31T03:09:51.297Z,7.57
2018-03-31T03:12:19.055Z,8.17
2018-03-31T03:14:46.823Z,8.93
2018-03-31T03:17:14.583Z,7.03
2018-03-31T03:19:42.376Z,7.77
2018-03-31T03:22:09.350Z,8.37
2018-03-31T03:24:36.355Z,8.10
2018-03-31T03:27:04.239Z,9.20
2018-03-31T03:29:31.272Z,7.87
2018-03-31T03:31:58.290Z,9.23
2018-03-31T03:34:26.065Z,14.30
2018-03-31T03:36:53.829Z,12.10
2018-03-31T03:39:21.599Z,12.10
2018-03-31T03:41:48.603Z,10.17
2018-03-31T03:44:16.381Z,9.53
2018-03-31T03:46:43.377Z,9.80
2018-03-31T03:49:10.394Z,9.13
2018-03-31T03:51:38.155Z,7.57
2018-03-31T03:54:06.602Z,8.50
2018-03-31T03:56:35.100Z,8.67
2018-03-31T03:59:03.176Z,8.40
2018-03-31T04:01:30.935Z,7.93
2018-03-31T04:03:58.690Z,8.40
2018-03-31T04:06:25.694Z,8.60
2018-03-31T04:08:52.682Z,8.10
2018-03-31T04:11:19.720Z,8.90
2018-03-31T04:16:20.125Z,8.20
2018-03-31T04:18:47.107Z,8.17
2018-03-31T04:21:14.113Z,9.03
2018-03-31T04:23:41.125Z,8.07
2018-03-31T04:26:08.137Z,9.00
2018-03-31T04:28:35.148Z,8.60
2018-03-31T04:31:02.170Z,8.70
2018-03-31T04:33:29.214Z,8.93
2018-03-31T04:35:57.010Z,7.57
2018-03-31T04:38:23.987Z,8.53
2018-03-31T04:40:51.003Z,9.23
2018-03-31T04:43:17.982Z,8.17
2018-03-31T04:45:45.009Z,8.27
2018-03-31T04:48:12.005Z,8.27
2018-03-31T04:50:39.007Z,7.63
2018-03-31T04:53:06.044Z,8.83
2018-03-31T04:55:33.037Z,8.03
2018-03-31T04:58:00.088Z,8.13
2018-03-31T05:00:27.082Z,7.83
2018-03-31T05:02:54.110Z,9.40
2018-03-31T05:05:21.126Z,8.93
2018-03-31T05:07:48.127Z,10.13
2018-03-31T05:10:15.132Z,9.60
2018-03-31T05:12:42.152Z,9.80
2018-03-31T05:15:09.937Z,8.33
2018-03-31T05:17:36.934Z,8.93
2018-03-31T05:20:03.937Z,7.87
2018-03-31T05:22:31.065Z,9.57
2018-03-31T05:24:58.101Z,9.17
2018-03-31T05:27:26.130Z,10.47
2018-03-31T05:29:53.102Z,8.97
2018-03-31T05:32:20.912Z,10.27
2018-03-31T05:34:47.989Z,10.87
2018-03-31T05:37:14.979Z,11.30
2018-03-31T05:39:41.999Z,10.20
2018-03-31T05:42:09.006Z,10.73
2018-03-31T05:44:36.644Z,10.33
2018-03-31T05:47:03.641Z,11.43
2018-03-31T05:49:30.648Z,9.50
2018-03-31T05:51:57.643Z,9.40
2018-03-31T05:54:26.002Z,10.80
2018-03-31T05:56:54.512Z,10.00
2018-03-31T05:59:22.283Z,8.80
2018-03-31T06:01:50.050Z,10.40
2018-03-31T06:04:17.828Z,9.30
2018-03-31T06:06:44.884Z,10.10
2018-03-31T06:09:11.956Z,8.87
2018-03-31T06:11:38.979Z,9.37
2018-03-31T06:14:05.984Z,9.40
2018-03-31T06:16:32.984Z,9.77
2018-03-31T06:18:59.991Z,9.10
2018-03-31T06:21:26.996Z,9.13
2018-03-31T06:23:54.063Z,30.43
2018-03-31T06:26:21.074Z,15.30
2018-03-31T06:28:48.066Z,11.63
2018-03-31T06:31:15.856Z,10.87
2018-03-31T06:33:42.851Z,8.27
2018-03-31T06:36:09.863Z,9.10
2018-03-31T06:38:36.866Z,17.43
2018-03-31T06:41:04.683Z,14.27
2018-03-31T06:43:31.705Z,9.03
2018-03-31T06:45:58.726Z,26.10
2018-03-31T06:48:25.732Z,27.73
2018-03-31T06:50:52.807Z,9.13
2018-03-31T06:53:20.598Z,8.70
2018-03-31T06:55:47.607Z,8.90
2018-03-31T06:58:14.808Z,9.23
2018-03-31T07:00:41.839Z,9.77
2018-03-31T07:03:09.025Z,8.40
2018-03-31T07:05:36.070Z,7.83
2018-03-31T07:08:03.070Z,8.80
2018-03-31T07:10:30.061Z,8.53
2018-03-31T07:12:57.089Z,9.10
2018-03-31T07:15:24.149Z,9.70
2018-03-31T07:17:51.208Z,9.20
2018-03-31T07:20:18.202Z,11.00
2018-03-31T07:22:45.222Z,7.70
2018-03-31T07:25:12.225Z,9.07
2018-03-31T07:27:39.222Z,9.03
2018-03-31T07:30:06.995Z,10.37
2018-03-31T07:32:35.662Z,8.47
2018-03-31T07:35:03.418Z,8.20
2018-03-31T07:37:30.435Z,8.03
2018-03-31T07:39:57.460Z,7.30
2018-03-31T07:42:24.474Z,6.43
2018-03-31T07:44:52.235Z,6.90
2018-03-31T07:47:20.001Z,7.10
2018-03-31T07:49:47.750Z,6.80
2018-03-31T07:52:15.812Z,6.63
2018-03-31T07:54:42.809Z,7.57
2018-03-31T07:57:09.815Z,5.57
2018-03-31T07:59:37.576Z,7.73
2018-03-31T08:02:05.422Z,7.37
2018-03-31T08:04:32.440Z,6.40
2018-03-31T08:06:59.489Z,7.17
2018-03-31T08:09:26.819Z,6.50
2018-03-31T08:11:53.824Z,5.83
2018-03-31T08:14:20.860Z,6.10
2018-03-31T08:16:47.936Z,8.67
2018-03-31T08:19:15.715Z,5.57
2018-03-31T08:21:42.714Z,5.60
2018-03-31T08:24:09.770Z,5.77
2018-03-31T08:26:36.762Z,6.80
2018-03-31T08:29:03.798Z,4.50
2018-03-31T08:31:30.798Z,5.60
2018-03-31T08:33:57.808Z,5.33
2018-03-31T08:36:24.906Z,5.00
2018-03-31T08:38:52.714Z,4.87
2018-03-31T08:41:19.731Z,4.93
2018-03-31T08:43:47.494Z,4.77
2018-03-31T08:46:15.464Z,4.77
2018-03-31T08:48:42.980Z,6.83
2018-03-31T08:51:10.099Z,5.03
2018-03-31T08:53:37.083Z,4.70
2018-03-31T08:56:04.105Z,5.70
2018-03-31T08:58:31.121Z,5.77
2018-03-31T09:00:58.134Z,6.00
2018-03-31T09:03:25.920Z,4.30
2018-03-31T09:05:52.971Z,9.33
2018-03-31T09:08:19.981Z,5.00
2018-03-31T09:10:46.987Z,4.07
2018-03-31T09:13:14.374Z,4.03
2018-03-31T09:15:41.410Z,4.47
2018-03-31T09:18:09.293Z,4.23
2018-03-31T09:20:36.308Z,3.83
2018-03-31T09:23:03.315Z,4.23
2018-03-31T09:25:31.200Z,4.93
2018-03-31T09:27:58.210Z,4.20
2018-03-31T09:30:26.128Z,4.10
2018-03-31T09:32:53.253Z,4.50
2018-03-31T09:35:21.060Z,4.60
2018-03-31T09:37:48.086Z,4.43
2018-03-31T09:40:15.392Z,4.03
2018-03-31T09:42:42.471Z,5.00
2018-03-31T09:45:09.470Z,5.10
2018-03-31T09:47:37.252Z,4.50
2018-03-31T09:50:05.040Z,4.93
2018-03-31T09:52:32.055Z,4.97
2018-03-31T09:54:59.072Z,4.43
2018-03-31T09:57:26.088Z,4.93
2018-03-31T09:59:53.092Z,3.57
2018-03-31T10:02:20.872Z,4.23
2018-03-31T10:04:48.023Z,4.00
2018-03-31T10:07:15.034Z,3.70
2018-03-31T10:09:42.070Z,4.47
2018-03-31T10:12:09.075Z,4.03
2018-03-31T10:14:36.083Z,4.80
2018-03-31T10:17:04.078Z,6.40
2018-03-31T10:19:31.120Z,4.53
2018-03-31T10:21:58.141Z,3.90
2018-03-31T10:24:25.143Z,3.60
2018-03-31T10:26:52.134Z,3.70
2018-03-31T10:29:19.203Z,3.07
2018-03-31T10:31:46.194Z,2.90
2018-03-31T10:34:13.200Z,2.30
2018-03-31T10:36:40.256Z,5.70
2018-03-31T10:39:07.309Z,3.50
2018-03-31T10:41:34.295Z,5.10
2018-03-31T10:44:01.347Z,3.10
2018-03-31T10:46:29.116Z,2.40
2018-03-31T10:48:56.917Z,2.73
2018-03-31T10:51:23.906Z,2.60
2018-03-31T10:53:50.933Z,2.47
2018-03-31T10:56:17.928Z,2.60
2018-03-31T10:58:45.720Z,3.30
2018-03-31T11:01:12.741Z,2.40
2018-03-31T11:03:40.504Z,16.27
2018-03-31T11:06:08.467Z,7.00
2018-03-31T11:08:36.234Z,3.03
2018-03-31T11:11:04.135Z,2.93
2018-03-31T11:13:31.173Z,4.33
2018-03-31T11:15:58.195Z,4.00
2018-03-31T11:18:25.980Z,2.63
2018-03-31T11:20:52.979Z,2.63
2018-03-31T11:23:20.003Z,2.60
2018-03-31T11:25:47.025Z,3.00
2018-03-31T11:28:14.073Z,3.53
2018-03-31T11:30:41.098Z,3.27
2018-03-31T11:33:08.876Z,2.50
2018-03-31T11:35:35.897Z,3.93
2018-03-31T11:38:03.679Z,2.90
2018-03-31T11:40:30.713Z,3.20
2018-03-31T11:42:58.546Z,2.83
2018-03-31T11:45:25.541Z,3.17
2018-03-31T11:47:52.567Z,3.40
2018-03-31T11:50:20.369Z,3.10
2018-03-31T11:52:47.370Z,2.53
2018-03-31T11:55:15.156Z,3.30
2018-03-31T11:57:42.159Z,2.27
2018-03-31T12:00:09.158Z,3.07
2018-03-31T12:02:36.235Z,3.87
2018-03-31T12:05:03.352Z,3.17
2018-03-31T12:07:30.352Z,2.30
2018-03-31T12:09:58.131Z,4.17
2018-03-31T12:12:25.911Z,3.60
2018-03-31T12:14:52.934Z,7.20
2018-03-31T12:17:20.704Z,4.43
2018-03-31T12:19:47.703Z,3.97
2018-03-31T12:22:14.721Z,9.43
2018-03-31T12:24:41.788Z,5.10
2018-03-31T12:27:09.150Z,4.30
2018-03-31T12:29:36.091Z,5.10
2018-03-31T12:32:03.119Z,4.80
2018-03-31T12:34:30.134Z,4.17
2018-03-31T12:36:57.848Z,3.70
2018-03-31T12:39:24.851Z,3.27
2018-03-31T12:41:51.843Z,3.77
2018-03-31T12:44:18.887Z,3.00
2018-03-31T12:49:19.380Z,3.70
2018-03-31T12:51:46.417Z,3.20
2018-03-31T12:54:14.183Z,3.17
2018-03-31T12:56:42.194Z,2.97
2018-03-31T12:59:09.201Z,2.57
2018-03-31T13:01:36.224Z,2.90
2018-03-31T13:04:03.996Z,3.03
2018-03-31T13:06:31.760Z,2.90
2018-03-31T13:08:59.523Z,2.70
2018-03-31T13:11:27.659Z,2.97
2018-03-31T13:13:54.710Z,2.90
2018-03-31T13:16:21.802Z,3.50
2018-03-31T13:18:49.563Z,3.53
2018-03-31T13:21:16.626Z,3.40
2018-03-31T13:23:43.625Z,14.77
2018-03-31T13:26:10.626Z,3.67
2018-03-31T13:28:37.669Z,3.83
2018-03-31T13:31:04.674Z,3.70
2018-03-31T13:33:31.787Z,3.20
2018-03-31T13:35:58.849Z,3.30
2018-03-31T13:38:25.855Z,4.63
2018-03-31T13:40:52.854Z,4.90
2018-03-31T13:43:20.619Z,4.70
2018-03-31T13:45:47.652Z,3.27
2018-03-31T13:48:14.660Z,3.00
2018-03-31T13:50:41.681Z,3.80
2018-03-31T13:53:08.747Z,2.80
2018-03-31T13:55:35.894Z,2.87
2018-03-31T13:58:03.280Z,3.00
2018-03-31T14:00:30.331Z,2.43
2018-03-31T14:02:57.339Z,3.33
2018-03-31T14:05:32.234Z,3.53
2018-03-31T14:07:59.927Z,3.53
2018-03-31T14:10:26.915Z,3.80
2018-03-31T14:12:55.432Z,3.93
2018-03-31T14:15:23.192Z,4.77
2018-03-31T14:17:51.007Z,4.17
2018-03-31T14:20:19.653Z,3.93
2018-03-31T14:22:46.716Z,4.73
2018-03-31T14:25:13.774Z,5.00
2018-03-31T14:27:42.036Z,4.00
2018-03-31T14:30:29.613Z,3.50
2018-03-31T14:32:56.896Z,3.03
2018-03-31T14:35:23.996Z,3.67
2018-03-31T14:37:51.146Z,3.67
2018-03-31T14:40:20.078Z,3.73
2018-03-31T14:42:48.307Z,3.90
2018-03-31T14:45:15.551Z,4.30
2018-03-31T14:47:42.656Z,4.00
2018-03-31T14:50:10.422Z,3.53
2018-03-31T14:52:39.365Z,4.17
2018-03-31T14:55:06.383Z,3.40
2018-03-31T14:57:33.420Z,3.23
2018-03-31T15:00:00.658Z,2.13
2018-03-31T15:02:29.636Z,4.10
2018-03-31T15:04:57.501Z,3.50
2018-03-31T15:07:25.337Z,3.40
2018-03-31T15:09:52.410Z,2.60
2018-03-31T15:12:20.190Z,2.90
2018-03-31T15:14:48.331Z,3.80
2018-03-31T15:17:15.426Z,3.13
2018-03-31T15:19:42.511Z,3.40
2018-03-31T15:22:09.516Z,3.50
2018-03-31T15:24:36.607Z,3.17
2018-03-31T15:27:03.664Z,9.57
2018-03-31T15:29:30.863Z,4.83
2018-03-31T15:31:57.856Z,4.83
2018-03-31T15:34:24.909Z,2.40
2018-03-31T15:36:51.967Z,3.30
2018-03-31T15:39:19.236Z,3.30
2018-03-31T15:41:46.275Z,3.07
2018-03-31T15:44:14.036Z,3.17
2018-03-31T15:46:42.138Z,3.80
2018-03-31T15:49:09.871Z,3.27
2018-03-31T15:51:36.915Z,2.93
2018-03-31T15:54:04.682Z,7.37
2018-03-31T15:56:32.457Z,3.40
2018-03-31T15:58:59.515Z,3.17
2018-03-31T16:01:26.552Z,3.20
2018-03-31T16:03:53.589Z,3.10
2018-03-31T16:06:21.396Z,3.20
2018-03-31T16:08:48.399Z,3.40
2018-03-31T16:11:16.169Z,2.63
2018-03-31T16:13:43.180Z,3.40
2018-03-31T16:16:11.010Z,7.93
2018-03-31T16:18:38.035Z,18.43
2018-03-31T16:21:05.041Z,5.63
2018-03-31T16:23:32.692Z,3.10
2018-03-31T16:25:59.687Z,3.23
2018-03-31T16:28:28.231Z,2.90
2018-03-31T16:30:55.252Z,4.00
2018-03-31T16:33:22.377Z,2.90
2018-03-31T16:35:49.384Z,3.80
2018-03-31T16:38:17.944Z,3.43
2018-03-31T16:40:45.195Z,3.40
2018-03-31T16:43:13.101Z,3.00
2018-03-31T16:45:40.150Z,3.93
2018-03-31T16:48:07.130Z,3.73
2018-03-31T16:50:34.171Z,2.90
2018-03-31T16:53:01.389Z,2.50
2018-03-31T16:55:29.235Z,3.43
2018-03-31T16:57:56.448Z,3.80
2018-03-31T17:00:24.271Z,3.87
2018-03-31T17:02:51.289Z,4.47
2018-03-31T17:05:19.571Z,5.13
2018-03-31T17:07:46.609Z,3.83
2018-03-31T17:10:14.802Z,3.13
2018-03-31T17:12:41.864Z,2.80
2018-03-31T17:15:08.889Z,4.50
2018-03-31T17:17:35.907Z,3.70
2018-03-31T17:20:03.662Z,11.07
2018-03-31T17:22:30.695Z,21.30
2018-03-31T17:24:57.806Z,8.70
2018-03-31T17:27:24.888Z,5.30
2018-03-31T17:29:55.420Z,3.70
2018-03-31T17:32:22.426Z,4.77
2018-03-31T17:34:53.376Z,4.03
2018-03-31T17:37:20.373Z,3.10
2018-03-31T17:39:48.132Z,3.53
2018-03-31T17:42:15.971Z,3.80
2018-03-31T17:44:42.976Z,3.17
2018-03-31T17:47:10.857Z,3.50
2018-03-31T17:49:37.868Z,3.50
2018-03-31T17:52:05.656Z,4.50
2018-03-31T17:54:32.677Z,4.27
2018-03-31T17:57:00.478Z,4.90
2018-03-31T17:59:27.549Z,4.27
2018-03-31T18:01:54.562Z,4.10
2018-03-31T18:04:21.570Z,4.93
2018-03-31T18:06:48.578Z,4.30
2018-03-31T18:09:15.628Z,4.60
2018-03-31T18:11:42.635Z,4.90
2018-03-31T18:14:09.650Z,5.50
2018-03-31T18:16:36.650Z,5.10
2018-03-31T18:19:03.650Z,4.83
2018-03-31T18:21:31.438Z,4.80
2018-03-31T18:23:58.453Z,4.53
2018-03-31T18:26:25.589Z,5.20
2018-03-31T18:28:52.556Z,8.20
2018-03-31T18:31:19.595Z,5.90
2018-03-31T18:33:47.344Z,5.63
2018-03-31T18:36:14.370Z,5.43
2018-03-31T18:38:41.400Z,5.00
2018-03-31T18:41:08.408Z,8.60
2018-03-31T18:43:36.180Z,10.67
2018-03-31T18:46:03.255Z,6.73
2018-03-31T18:48:30.236Z,5.87
2018-03-31T18:50:57.236Z,6.30
2018-03-31T18:53:24.257Z,6.90
2018-03-31T18:55:52.529Z,6.97
2018-03-31T18:58:20.342Z,7.27
2018-03-31T19:00:47.334Z,6.80
2018-03-31T19:03:15.103Z,6.40
2018-03-31T19:05:42.238Z,7.00
2018-03-31T19:08:09.255Z,6.53
2018-03-31T19:10:36.318Z,6.47
2018-03-31T19:13:03.422Z,6.27
2018-03-31T19:15:30.419Z,6.07
2018-03-31T19:17:58.217Z,5.23
2018-03-31T19:20:25.218Z,5.57
2018-03-31T19:22:52.314Z,4.43
2018-03-31T19:25:25.100Z,3.80
2018-03-31T19:27:52.118Z,5.17
2018-03-31T19:30:19.914Z,4.43
2018-03-31T19:32:46.910Z,4.20
2018-03-31T19:35:14.690Z,4.57
2018-03-31T19:37:42.474Z,4.13
2018-03-31T19:40:09.514Z,3.87
2018-03-31T19:42:36.592Z,4.40
2018-03-31T19:45:03.587Z,2.90
2018-03-31T19:47:31.356Z,3.50
2018-03-31T19:49:58.553Z,3.80
2018-03-31T19:52:25.558Z,3.80
2018-03-31T19:54:52.597Z,4.00
2018-03-31T19:57:19.609Z,3.57
2018-03-31T19:59:46.638Z,4.10
2018-03-31T20:02:13.687Z,3.33
2018-03-31T20:04:41.041Z,3.30
2018-03-31T20:07:08.438Z,3.40
2018-03-31T20:09:35.451Z,3.83
2018-03-31T20:12:02.473Z,3.60
2018-03-31T20:14:29.508Z,3.60
2018-03-31T20:16:56.505Z,3.20
2018-03-31T20:19:23.521Z,3.20
2018-03-31T20:21:50.609Z,3.30
2018-03-31T20:24:18.411Z,3.83
2018-03-31T20:26:45.458Z,3.00
2018-03-31T20:29:12.762Z,3.10
2018-03-31T20:31:46.059Z,3.77
2018-03-31T20:34:13.072Z,3.30
2018-03-31T20:36:40.079Z,3.60
2018-03-31T20:39:07.108Z,3.23
2018-03-31T20:41:35.176Z,3.93
2018-03-31T20:44:02.960Z,4.03
2018-03-31T20:46:42.583Z,4.03
2018-03-31T20:49:12.030Z,4.17
2018-03-31T20:51:39.115Z,2.80
2018-03-31T20:54:06.131Z,3.07
2018-03-31T20:56:33.169Z,3.67
2018-03-31T20:59:00.153Z,3.80
2018-03-31T21:01:28.371Z,3.83
2018-03-31T21:03:55.391Z,3.40
2018-03-31T21:06:23.220Z,3.90
2018-03-31T21:08:50.242Z,3.60
2018-03-31T21:11:17.257Z,3.77
2018-03-31T21:13:44.270Z,3.47
2018-03-31T21:16:11.282Z,3.50
2018-03-31T21:18:38.312Z,3.53
2018-03-31T21:21:05.337Z,4.17
2018-03-31T21:23:33.117Z,4.13
2018-03-31T21:26:00.108Z,3.83
2018-03-31T21:28:27.136Z,3.67
2018-03-31T21:30:54.136Z,3.73
2018-03-31T21:33:21.157Z,4.80
2018-03-31T21:35:48.204Z,4.43
2018-03-31T21:38:15.308Z,4.53
2018-03-31T21:40:42.350Z,4.27
2018-03-31T21:43:09.363Z,4.53
2018-03-31T21:45:37.161Z,5.33
2018-03-31T21:48:04.198Z,5.97
2018-03-31T21:50:31.251Z,4.10
2018-03-31T21:52:58.973Z,4.80
2018-03-31T21:55:26.761Z,5.07
2018-03-31T21:57:53.817Z,5.00
2018-03-31T22:00:20.826Z,4.43
2018-03-31T22:02:48.600Z,4.70
2018-03-31T22:05:16.375Z,5.97
2018-03-31T22:07:43.382Z,4.90
2018-03-31T22:10:10.387Z,5.43
2018-03-31T22:12:37.389Z,4.90
2018-03-31T22:15:10.764Z,3.60
2018-03-31T22:17:37.754Z,4.80
2018-03-31T22:20:04.742Z,5.17
2018-03-31T22:22:31.866Z,4.83
2018-03-31T22:24:58.840Z,4.63
2018-03-31T22:27:27.260Z,4.73
2018-03-31T22:29:58.560Z,5.17
2018-03-31T22:32:25.825Z,7.70
2018-03-31T22:34:53.936Z,5.20
2018-03-31T22:37:22.580Z,5.27
2018-03-31T22:39:49.650Z,5.10
2018-03-31T22:42:17.450Z,4.90
2018-03-31T22:44:44.734Z,5.20
2018-03-31T22:47:11.822Z,5.10
2018-03-31T22:49:39.639Z,5.30
2018-03-31T22:52:06.774Z,4.73
2018-03-31T22:54:33.810Z,6.20
2018-03-31T22:57:00.799Z,5.70
2018-03-31T22:59:27.818Z,5.23
2018-03-31T23:01:54.810Z,5.80
2018-03-31T23:04:22.591Z,5.83
2018-03-31T23:06:50.348Z,5.77
2018-03-31T23:09:17.422Z,6.00
2018-03-31T23:11:44.460Z,6.70
2018-03-31T23:14:11.465Z,6.30
2018-03-31T23:16:39.233Z,6.37
2018-03-31T23:19:07.017Z,6.53
2018-03-31T23:21:34.013Z,7.80
2018-03-31T23:24:01.040Z,7.80
2018-03-31T23:26:28.042Z,7.30
2018-03-31T23:28:55.055Z,8.43
2018-03-31T23:31:22.167Z,7.90
2018-03-31T23:33:49.146Z,7.40
2018-03-31T23:36:16.219Z,6.47
2018-03-31T23:38:43.966Z,5.93
2018-03-31T23:41:12.495Z,6.90
2018-03-31T23:43:39.562Z,5.53
2018-03-31T23:46:06.576Z,7.30
2018-03-31T23:48:33.565Z,6.20
2018-03-31T23:51:00.604Z,6.10
2018-03-31T23:53:27.593Z,7.63
2018-03-31T23:55:55.451Z,8.07
2018-03-31T23:58:23.236Z,8.17
